»·PEaware :: DPJ1 KLAS-L35

DPJ1 :: KLAS-L35

FLIGHT INFORMATION

Flight Status: Arrived
Operator: Unknown
More flights by this operator :: More flights under this callsign
Pilot: Andrew C. (10733)
Aircraft: EMBRAER PHENOM 300
(E55P)
More flights by this aircraft type
Origin: KLAS McCarran Intl
United States
Destination: L35 Big Bear City
United States
More flights between these airports :: More routes between these airports
Route: +KLAS BOACH7 HEC OKACO L35
File this flight plan on PilotEdge
Remarks:
Altitude:
(Current/Filed)
16,000ft
Speed:
(Current/Filed)
325kts
Departed: 31-May-17 03:22 PM
Arrived: 31-May-17 03:56 PM
Distance/Time
Traveled:
137nm/0:34
Distance/Time
To Go:
Arrived

Flight Plot

Page will automatically refresh every two minutes.

Flight plan parsing failed; only flown route is shown


Map Options




Map Legend


Flown Route
Filed Route
Departure Airport
Arrival Airport
Navaid (VOR, NDB)
Fix

Horizontal Profiles

Position Reports

Time Latitude Longitude Heading Altitude Ground
Speed
31-May-17 15:03 36.090917 -115.165908 90 2184ft 0kts
31-May-17 15:04 36.090917 -115.165908 90 2184ft 0kts
31-May-17 15:05 36.090917 -115.165908 90 2184ft 0kts
31-May-17 15:06 36.090917 -115.165908 90 2184ft 0kts
31-May-17 15:07 36.090917 -115.165908 90 2184ft 0kts
31-May-17 15:08 36.090917 -115.165908 90 2184ft 0kts
31-May-17 15:09 36.090917 -115.165908 90 2184ft 0kts
31-May-17 15:10 36.090917 -115.165908 90 2184ft 0kts
31-May-17 15:11 36.090917 -115.165908 90 2184ft 0kts
31-May-17 15:12 36.090917 -115.165908 90 2184ft 0kts
31-May-17 15:13 36.090917 -115.165908 90 2184ft 0kts
31-May-17 15:14 36.090917 -115.165908 90 2184ft 0kts
31-May-17 15:15 36.090917 -115.165908 90 2184ft 0kts
31-May-17 15:16 36.090917 -115.165908 90 2184ft 0kts
31-May-17 15:17 36.090917 -115.165906 90 2184ft 0kts
31-May-17 15:18 36.090839 -115.163923 41 2184ft 9kts
31-May-17 15:19 36.093718 -115.162256 25 2184ft 17kts
31-May-17 15:20 36.098576 -115.159486 26 2184ft 16kts
31-May-17 15:21 36.099856 -115.157750 68 2184ft 0kts
31-May-17 15:22 36.099859 -115.157741 68 2184ft 0kts
31-May-17 15:23 36.099902 -115.157603 68 2184ft 0kts
31-May-17 15:24 36.093364 -115.160109 202 2184ft 119kts
31-May-17 15:25 36.064749 -115.177202 202 5452ft 134kts
31-May-17 15:26 36.027668 -115.198016 202 7007ft 207kts
31-May-17 15:27 35.983872 -115.272200 238 7315ft 264kts
31-May-17 15:28 35.931453 -115.305326 181 7465ft 264kts
31-May-17 15:29 35.852573 -115.314255 177 10797ft 246kts
31-May-17 15:30 35.783820 -115.306663 174 14764ft 247kts
31-May-17 15:31 35.706120 -115.298156 177 15990ft 323kts
31-May-17 15:32 35.627600 -115.362896 225 16035ft 377kts
31-May-17 15:33 35.554756 -115.461086 224 16031ft 396kts
31-May-17 15:34 35.479752 -115.561667 224 16031ft 403kts
31-May-17 15:35 35.403808 -115.663148 224 16037ft 405kts
31-May-17 15:36 35.327691 -115.764767 224 16043ft 405kts
31-May-17 15:37 35.250912 -115.866585 224 16046ft 406kts
31-May-17 15:38 35.174323 -115.968043 224 16051ft 406kts
31-May-17 15:39 35.097593 -116.069326 225 16051ft 406kts
31-May-17 15:40 35.020576 -116.170581 225 16052ft 406kts
31-May-17 15:41 34.943835 -116.271349 225 16062ft 406kts
31-May-17 15:42 34.873529 -116.363446 225 15298ft 334kts
31-May-17 15:43 34.813435 -116.441743 221 14163ft 305kts
31-May-17 15:44 34.737848 -116.475962 189 12990ft 289kts
31-May-17 15:45 34.659947 -116.494242 189 11787ft 278kts
31-May-17 15:46 34.585857 -116.511321 189 10791ft 265kts
31-May-17 15:47 34.512801 -116.527866 189 9629ft 268kts
31-May-17 15:48 34.442858 -116.543829 190 9496ft 242kts
31-May-17 15:49 34.378518 -116.558502 190 9484ft 229kts
31-May-17 15:50 34.321570 -116.571407 190 9413ft 198kts
31-May-17 15:51 34.273911 -116.591380 226 9305ft 168kts
31-May-17 15:52 34.264880 -116.641418 262 9482ft 141kts
31-May-17 15:53 34.264306 -116.689827 263 8962ft 150kts
31-May-17 15:54 34.264197 -116.739820 265 8708ft 138kts
31-May-17 15:55 34.265249 -116.789495 267 7936ft 150kts
31-May-17 15:56 34.264057 -116.838740 268 6985ft 135kts
31-May-17 15:57 34.261129 -116.855306 64 7246ft 179kts
31-May-17 15:58 34.262710 -116.857514 0 6755ft 0kts
31-May-17 15:59 34.262712 -116.857514 359 6755ft 0kts
31-May-17 16:00 34.262714 -116.857514 0 6755ft 0kts
31-May-17 16:01 34.262716 -116.857514 359 6755ft 0kts
31-May-17 16:02 34.262717 -116.857514 0 6755ft 0kts

Navigation Log

Ident Type
Flight plan parsing failed, navigation log unavailable